Andover, Kansas
Current Conditions -  °F | °C
As of 5:30 AM on Thursday 18 Dec 2014 (Local Time) from KAAO Reporting Station
Overcast Overcast  
Wind Chill: 30°   Ceiling: 400
Heat Index: 30°   Visibility: 10mi
Dew Point: 29°   Wind: 0mph
Humidity: 96%   Direction: NA
Pressure: 30.14"   Gusts: NA
Location:  37.71°N, 97.14°W
Report Text: KAAO 181130Z AUTO 00000KT 10SM OVC004 M01/M02 A3014 RMK AO2 T10111017
Loading
Personal Weather Stations






























Interactive Weather Map New forecast layout! Learn more

10-Day Weather Forecast

Advertisements
Track Severe Weather on mobile